createdAt,value
2023-10-26T00:04:00.797Z,7.80
2023-10-26T00:09:06.766Z,7.18
2023-10-26T00:14:14.944Z,7.55
2023-10-26T00:19:20.708Z,6.77
2023-10-26T00:24:26.321Z,8.27
2023-10-26T00:29:34.487Z,7.27
2023-10-26T00:34:40.403Z,6.68
2023-10-26T00:39:46.433Z,6.70
2023-10-26T00:44:58.321Z,5.73
2023-10-26T00:50:04.901Z,7.43
2023-10-26T00:55:13.712Z,7.00
2023-10-26T01:00:22.538Z,7.15
2023-10-26T01:05:28.340Z,6.97
2023-10-26T01:10:34.784Z,7.80
2023-10-26T01:15:42.935Z,7.65
2023-10-26T01:20:48.374Z,7.90
2023-10-26T01:25:59.903Z,7.60
2023-10-26T01:31:06.047Z,8.05
2023-10-26T01:36:11.584Z,7.63
2023-10-26T01:41:19.813Z,7.97
2023-10-26T01:46:25.253Z,7.30
2023-10-26T01:51:33.405Z,6.93
2023-10-26T01:56:41.860Z,7.35
2023-10-26T02:01:47.910Z,7.03
2023-10-26T02:06:53.431Z,6.65
2023-10-26T02:12:02.407Z,7.38
2023-10-26T02:17:08.500Z,5.87
2023-10-26T02:22:15.349Z,6.55
2023-10-26T02:27:24.929Z,6.77
2023-10-26T02:32:31.025Z,5.70
2023-10-26T02:37:39.729Z,6.57
2023-10-26T02:42:47.943Z,5.87
2023-10-26T02:47:53.758Z,5.97
2023-10-26T02:52:59.339Z,5.73
2023-10-26T02:58:07.350Z,5.30
2023-10-26T03:03:14.131Z,4.82
2023-10-26T03:08:21.111Z,4.43
2023-10-26T03:13:29.369Z,4.57
2023-10-26T03:18:35.086Z,4.00
2023-10-26T03:23:40.792Z,4.30
2023-10-26T03:28:48.960Z,4.30
2023-10-26T03:33:55.108Z,4.97
2023-10-26T03:39:00.701Z,4.50
2023-10-26T03:44:09.613Z,4.80
2023-10-26T03:49:15.163Z,4.73
2023-10-26T03:54:20.763Z,4.60
2023-10-26T03:59:29.029Z,5.90
2023-10-26T04:04:35.085Z,5.17
2023-10-26T04:09:40.966Z,5.50
2023-10-26T04:14:48.932Z,5.60
2023-10-26T04:19:54.558Z,6.15
2023-10-26T04:25:00.264Z,5.38
2023-10-26T04:30:10.870Z,5.33
2023-10-26T04:35:16.376Z,6.05
2023-10-26T04:40:22.899Z,6.60
2023-10-26T04:45:31.358Z,5.53
2023-10-26T04:50:36.927Z,6.30
2023-10-26T04:55:42.616Z,6.47
2023-10-26T05:00:50.721Z,6.80
2023-10-26T05:05:56.214Z,7.65
2023-10-26T05:11:03.093Z,6.53
2023-10-26T05:16:11.500Z,6.97
2023-10-26T05:21:17.280Z,7.00
2023-10-26T05:26:22.949Z,6.72
2023-10-26T05:31:31.020Z,6.60
2023-10-26T05:36:36.518Z,6.80
2023-10-26T05:41:42.062Z,7.13
2023-10-26T05:46:50.660Z,6.77
2023-10-26T05:51:58.531Z,7.20
2023-10-26T05:57:04.511Z,6.85
2023-10-26T06:02:12.689Z,7.17
2023-10-26T06:07:18.159Z,7.47
2023-10-26T06:12:23.597Z,6.63
2023-10-26T06:17:31.923Z,7.20
2023-10-26T06:22:37.678Z,7.05
2023-10-26T06:27:43.558Z,6.87
2023-10-26T06:32:52.318Z,6.78
2023-10-26T06:37:58.104Z,7.85
2023-10-26T06:43:04.968Z,6.67
2023-10-26T06:48:14.680Z,7.60
2023-10-26T06:53:21.966Z,6.80
2023-10-26T06:58:31.682Z,6.72
2023-10-26T07:03:43.787Z,7.35
2023-10-26T07:08:55.880Z,6.47
2023-10-26T07:14:03.577Z,7.60
2023-10-26T07:19:11.734Z,6.30
2023-10-26T07:24:17.364Z,7.30
2023-10-26T07:29:23.157Z,7.13
2023-10-26T07:34:31.382Z,6.50
2023-10-26T07:39:45.005Z,6.28
2023-10-26T07:44:57.941Z,6.47
2023-10-26T07:50:06.976Z,5.37
2023-10-26T07:55:12.792Z,5.53
2023-10-26T08:00:19.124Z,5.93
2023-10-26T08:05:28.224Z,5.37
2023-10-26T08:10:38.294Z,5.53
2023-10-26T08:16:10.397Z,5.30
2023-10-26T08:21:14.531Z,6.65
2023-10-26T08:26:20.022Z,6.80
2023-10-26T08:31:26.140Z,6.60
2023-10-26T08:36:35.242Z,6.47
2023-10-26T08:41:40.840Z,5.90
2023-10-26T08:46:47.711Z,5.87
2023-10-26T08:51:55.849Z,6.15
2023-10-26T08:57:10.760Z,6.70
2023-10-26T09:02:16.531Z,6.70
2023-10-26T09:07:32.415Z,6.18
2023-10-26T09:12:38.062Z,7.17
2023-10-26T09:17:43.513Z,7.60
2023-10-26T09:22:51.718Z,7.18
2023-10-26T09:28:05.504Z,7.47
2023-10-26T09:33:26.805Z,7.28
2023-10-26T09:38:41.093Z,7.80
2023-10-26T09:43:47.349Z,6.67
2023-10-26T09:48:53.406Z,7.55
2023-10-26T09:54:05.684Z,7.20
2023-10-26T09:59:11.512Z,6.57
2023-10-26T10:04:19.770Z,6.93
2023-10-26T10:09:29.812Z,6.90
2023-10-26T10:15:22.235Z,7.00
2023-10-26T10:20:32.420Z,6.65
2023-10-26T10:26:20.005Z,7.13
2023-10-26T10:31:43.831Z,6.50
2023-10-26T10:37:13.224Z,6.05
2023-10-26T10:42:21.663Z,5.60
2023-10-26T10:47:31.868Z,6.00
2023-10-26T10:52:37.439Z,5.70
2023-10-26T10:57:58.533Z,5.43
2023-10-26T11:03:04.375Z,5.82
2023-10-26T11:08:11.394Z,5.55
2023-10-26T11:13:22.608Z,5.53
2023-10-26T11:18:28.453Z,6.25
2023-10-26T11:23:34.328Z,5.90
2023-10-26T11:28:42.622Z,6.28
2023-10-26T11:33:48.176Z,5.75
2023-10-26T11:38:55.136Z,5.20
2023-10-26T11:44:04.955Z,4.50
2023-10-26T11:49:10.747Z,5.05
2023-10-26T11:54:19.971Z,5.23
2023-10-26T11:59:28.124Z,4.60
2023-10-26T12:04:33.633Z,4.70
2023-10-26T12:09:39.054Z,5.22
2023-10-26T12:14:48.546Z,4.05
2023-10-26T12:19:54.244Z,3.37
2023-10-26T12:25:00.200Z,5.05
2023-10-26T12:30:09.982Z,4.10
2023-10-26T12:35:15.530Z,5.23
2023-10-26T12:40:21.872Z,5.30
2023-10-26T12:45:30.336Z,5.57
2023-10-26T12:50:41.563Z,5.50
2023-10-26T12:55:47.233Z,4.88
2023-10-26T13:00:55.595Z,5.30
2023-10-26T13:06:01.368Z,5.60
2023-10-26T13:11:07.310Z,5.30
2023-10-26T13:16:15.416Z,5.57
2023-10-26T13:21:21.731Z,5.57
2023-10-26T13:26:27.463Z,5.93
2023-10-26T13:31:35.690Z,5.77
2023-10-26T13:36:41.255Z,5.88
2023-10-26T13:41:47.207Z,5.20
2023-10-26T13:46:55.411Z,5.27
2023-10-26T13:52:02.142Z,4.80
2023-10-26T13:57:09.783Z,5.60
2023-10-26T14:02:20.504Z,4.87
2023-10-26T14:07:33.423Z,4.70
2023-10-26T14:12:40.747Z,4.97
2023-10-26T14:17:48.924Z,5.18
2023-10-26T14:22:54.534Z,5.95
2023-10-26T14:28:02.272Z,5.93
2023-10-26T14:33:10.817Z,5.07
2023-10-26T14:38:16.273Z,4.87
2023-10-26T14:43:21.692Z,6.07
2023-10-26T14:48:29.957Z,5.25
2023-10-26T14:53:36.056Z,5.27
2023-10-26T14:58:41.547Z,6.10
2023-10-26T15:03:49.613Z,6.63
2023-10-26T15:08:55.295Z,6.20
2023-10-26T15:14:00.677Z,6.03
2023-10-26T15:19:08.814Z,5.77
2023-10-26T15:24:14.784Z,5.30
2023-10-26T15:29:20.359Z,4.82
2023-10-26T15:34:28.954Z,5.67
2023-10-26T15:39:37.335Z,4.63
2023-10-26T15:44:46.086Z,4.70
2023-10-26T15:49:57.307Z,5.00
2023-10-26T15:55:04.925Z,5.18
2023-10-26T16:00:13.336Z,5.17
2023-10-26T16:05:21.416Z,5.93
2023-10-26T16:10:27.168Z,5.47
2023-10-26T16:15:32.657Z,5.17
2023-10-26T16:20:43.764Z,5.18
2023-10-26T16:25:49.936Z,6.32
2023-10-26T16:31:00.416Z,6.67
2023-10-26T16:36:09.707Z,5.60
2023-10-26T16:41:15.308Z,5.80
2023-10-26T16:46:21.524Z,5.80
2023-10-26T16:51:29.668Z,7.30
2023-10-26T16:56:35.149Z,6.37
2023-10-26T17:01:40.822Z,5.50
2023-10-26T17:06:48.933Z,4.68
2023-10-26T17:11:54.717Z,4.43
2023-10-26T17:17:00.835Z,4.90
2023-10-26T17:22:10.663Z,4.97
2023-10-26T17:27:16.377Z,3.53
2023-10-26T17:32:21.771Z,3.53
2023-10-26T17:37:29.839Z,3.77
2023-10-26T17:42:36.499Z,3.90
2023-10-26T17:47:42.038Z,4.03
2023-10-26T17:52:50.160Z,4.50
2023-10-26T17:57:55.614Z,4.45
2023-10-26T18:03:01.141Z,4.90
2023-10-26T18:08:09.306Z,4.60
2023-10-26T18:13:14.740Z,4.32
2023-10-26T18:18:20.494Z,4.53
2023-10-26T18:23:31.023Z,4.65
2023-10-26T18:28:37.433Z,4.37
2023-10-26T18:33:44.091Z,5.80
2023-10-26T18:38:52.758Z,4.72
2023-10-26T18:43:58.567Z,5.60
2023-10-26T18:49:04.849Z,5.13
2023-10-26T18:54:13.009Z,5.07
2023-10-26T18:59:18.501Z,5.78
2023-10-26T19:04:24.032Z,6.70
2023-10-26T19:09:32.181Z,5.70
2023-10-26T19:14:37.799Z,5.32
2023-10-26T19:19:43.481Z,7.20
2023-10-26T19:24:52.262Z,5.70
2023-10-26T19:29:57.836Z,5.85
2023-10-26T19:35:04.670Z,5.47
2023-10-26T19:40:14.247Z,5.88
2023-10-26T19:45:20.183Z,5.27
2023-10-26T19:50:25.997Z,6.07
2023-10-26T19:55:34.098Z,6.15
2023-10-26T20:00:39.644Z,5.87
2023-10-26T20:05:45.818Z,5.55
2023-10-26T20:10:53.965Z,5.50
2023-10-26T20:15:59.574Z,6.07
2023-10-26T20:21:05.611Z,5.65
2023-10-26T20:26:14.040Z,5.60
2023-10-26T20:31:20.649Z,6.25
2023-10-26T20:36:26.704Z,6.35
2023-10-26T20:41:35.755Z,5.57
2023-10-26T20:46:41.498Z,5.70
2023-10-26T20:51:47.035Z,5.80
2023-10-26T20:56:55.092Z,5.97
2023-10-26T21:02:00.671Z,6.15
2023-10-26T21:07:06.999Z,5.60
2023-10-26T21:12:15.070Z,5.28
2023-10-26T21:17:20.679Z,5.70
2023-10-26T21:22:26.208Z,5.82
2023-10-26T21:27:34.479Z,5.90
2023-10-26T21:32:40.062Z,5.57
2023-10-26T21:37:46.057Z,5.85
2023-10-26T21:42:54.341Z,5.93
2023-10-26T21:47:59.897Z,6.13
2023-10-26T21:53:06.103Z,5.72
2023-10-26T21:58:14.291Z,5.57
2023-10-26T22:03:19.775Z,5.85
2023-10-26T22:08:25.425Z,5.78
2023-10-26T22:13:34.126Z,5.47
2023-10-26T22:18:39.713Z,5.70
2023-10-26T22:23:45.367Z,5.53
2023-10-26T22:28:56.281Z,6.30
2023-10-26T22:34:03.093Z,6.40
2023-10-26T22:39:08.861Z,5.40
2023-10-26T22:44:16.981Z,5.55
2023-10-26T22:49:22.559Z,5.40
2023-10-26T22:54:28.358Z,5.57
2023-10-26T22:59:36.456Z,5.97
2023-10-26T23:04:42.631Z,6.23
2023-10-26T23:09:48.328Z,5.75
2023-10-26T23:14:56.636Z,6.22
2023-10-26T23:20:02.083Z,5.20
2023-10-26T23:25:09.531Z,5.28
2023-10-26T23:30:17.918Z,5.43
2023-10-26T23:35:23.693Z,5.10
2023-10-26T23:40:32.176Z,5.32
2023-10-26T23:45:40.503Z,5.00
2023-10-26T23:50:48.769Z,5.75
2023-10-26T23:55:54.276Z,5.15
